sensor_id;sensor_type;location;lat;lon;timestamp;pressure;altitude;pressure_sealevel;temperature;humidity
81802;BME280;71199;52.490;5.448;2024-03-08T00:00:14;102105.75;;;1.60;100.00
81802;BME280;71199;52.490;5.448;2024-03-08T00:02:40;102112.97;;;1.44;100.00
81802;BME280;71199;52.490;5.448;2024-03-08T00:05:06;102112.44;;;1.37;100.00
81802;BME280;71199;52.490;5.448;2024-03-08T00:07:37;102108.06;;;1.35;100.00
81802;BME280;71199;52.490;5.448;2024-03-08T00:10:06;102100.47;;;1.41;100.00
81802;BME280;71199;52.490;5.448;2024-03-08T00:12:35;102100.47;;;1.41;100.00
81802;BME280;71199;52.490;5.448;2024-03-08T00:15:01;102101.59;;;1.37;100.00
81802;BME280;71199;52.490;5.448;2024-03-08T00:17:26;102093.72;;;1.33;100.00
81802;BME280;71199;52.490;5.448;2024-03-08T00:19:52;102092.34;;;1.41;100.00
81802;BME280;71199;52.490;5.448;2024-03-08T00:22:17;102099.94;;;1.35;100.00
81802;BME280;71199;52.490;5.448;2024-03-08T00:24:43;102095.81;;;1.28;100.00
81802;BME280;71199;52.490;5.448;2024-03-08T00:27:09;102092.72;;;1.18;100.00
81802;BME280;71199;52.490;5.448;2024-03-08T00:29:34;102091.41;;;1.25;100.00
81802;BME280;71199;52.490;5.448;2024-03-08T00:32:00;102088.50;;;1.12;100.00
81802;BME280;71199;52.490;5.448;2024-03-08T00:34:26;102089.03;;;1.19;100.00
81802;BME280;71199;52.490;5.448;2024-03-08T00:36:51;102092.00;;;1.14;100.00
81802;BME280;71199;52.490;5.448;2024-03-08T00:39:18;102097.16;;;1.19;100.00
81802;BME280;71199;52.490;5.448;2024-03-08T00:41:45;102083.09;;;1.12;100.00
81802;BME280;71199;52.490;5.448;2024-03-08T00:44:10;102086.13;;;1.06;100.00
81802;BME280;71199;52.490;5.448;2024-03-08T00:46:36;102086.53;;;1.16;100.00
81802;BME280;71199;52.490;5.448;2024-03-08T00:49:01;102086.59;;;1.14;100.00
81802;BME280;71199;52.490;5.448;2024-03-08T00:51:26;102081.56;;;1.07;100.00
81802;BME280;71199;52.490;5.448;2024-03-08T00:53:52;102069.16;;;1.03;100.00
81802;BME280;71199;52.490;5.448;2024-03-08T00:56:17;102067.50;;;1.00;100.00
81802;BME280;71199;52.490;5.448;2024-03-08T00:58:42;102062.88;;;1.02;100.00
81802;BME280;71199;52.490;5.448;2024-03-08T01:01:08;102062.09;;;1.00;100.00
81802;BME280;71199;52.490;5.448;2024-03-08T01:03:35;102058.78;;;0.95;100.00
81802;BME280;71199;52.490;5.448;2024-03-08T01:06:01;102062.50;;;0.92;100.00
81802;BME280;71199;52.490;5.448;2024-03-08T01:08:27;102059.38;;;1.00;100.00
81802;BME280;71199;52.490;5.448;2024-03-08T01:10:53;102055.56;;;1.04;100.00
81802;BME280;71199;52.490;5.448;2024-03-08T01:13:18;102054.69;;;1.04;100.00
81802;BME280;71199;52.490;5.448;2024-03-08T01:15:44;102050.66;;;0.95;100.00
81802;BME280;71199;52.490;5.448;2024-03-08T01:18:10;102038.22;;;0.91;100.00
81802;BME280;71199;52.490;5.448;2024-03-08T01:20:36;102032.97;;;0.88;100.00
81802;BME280;71199;52.490;5.448;2024-03-08T01:23:01;102030.13;;;0.91;100.00
81802;BME280;71199;52.490;5.448;2024-03-08T01:25:27;102031.53;;;0.98;100.00
81802;BME280;71199;52.490;5.448;2024-03-08T01:27:52;102016.25;;;0.97;100.00
81802;BME280;71199;52.490;5.448;2024-03-08T01:30:19;102015.69;;;0.90;100.00
81802;BME280;71199;52.490;5.448;2024-03-08T01:32:44;102017.84;;;0.84;100.00
81802;BME280;71199;52.490;5.448;2024-03-08T01:35:10;102009.75;;;0.84;100.00
81802;BME280;71199;52.490;5.448;2024-03-08T01:37:35;102010.59;;;0.84;100.00
81802;BME280;71199;52.490;5.448;2024-03-08T01:40:01;102012.63;;;0.80;100.00
81802;BME280;71199;52.490;5.448;2024-03-08T01:42:28;102006.97;;;0.85;100.00
81802;BME280;71199;52.490;5.448;2024-03-08T01:44:53;101998.19;;;0.80;100.00
81802;BME280;71199;52.490;5.448;2024-03-08T01:47:19;101999.69;;;0.86;100.00
81802;BME280;71199;52.490;5.448;2024-03-08T01:49:49;101982.06;;;0.78;100.00
81802;BME280;71199;52.490;5.448;2024-03-08T01:52:15;101982.84;;;0.80;100.00
81802;BME280;71199;52.490;5.448;2024-03-08T01:54:41;101986.28;;;0.67;100.00
81802;BME280;71199;52.490;5.448;2024-03-08T01:57:07;101976.72;;;0.77;100.00
81802;BME280;71199;52.490;5.448;2024-03-08T01:59:33;101985.81;;;0.58;100.00
81802;BME280;71199;52.490;5.448;2024-03-08T02:02:01;101976.66;;;0.61;100.00
81802;BME280;71199;52.490;5.448;2024-03-08T02:04:28;101974.59;;;0.66;100.00
81802;BME280;71199;52.490;5.448;2024-03-08T02:06:56;101970.59;;;0.73;100.00
81802;BME280;71199;52.490;5.448;2024-03-08T02:09:23;101968.81;;;0.56;100.00
81802;BME280;71199;52.490;5.448;2024-03-08T02:11:50;101960.91;;;0.69;100.00
81802;BME280;71199;52.490;5.448;2024-03-08T02:14:17;101968.41;;;0.64;100.00
81802;BME280;71199;52.490;5.448;2024-03-08T02:16:44;101973.41;;;0.54;100.00
81802;BME280;71199;52.490;5.448;2024-03-08T02:19:09;101975.25;;;0.54;100.00
81802;BME280;71199;52.490;5.448;2024-03-08T02:21:35;101964.84;;;0.46;100.00
81802;BME280;71199;52.490;5.448;2024-03-08T02:24:01;101969.13;;;0.50;100.00
81802;BME280;71199;52.490;5.448;2024-03-08T02:26:27;101967.34;;;0.49;100.00
81802;BME280;71199;52.490;5.448;2024-03-08T02:28:53;101959.09;;;0.52;100.00
81802;BME280;71199;52.490;5.448;2024-03-08T02:31:19;101964.03;;;0.44;100.00
81802;BME280;71199;52.490;5.448;2024-03-08T02:33:44;101947.31;;;0.53;100.00
81802;BME280;71199;52.490;5.448;2024-03-08T02:36:13;101947.31;;;0.53;100.00
81802;BME280;71199;52.490;5.448;2024-03-08T02:38:38;101956.66;;;0.48;100.00
81802;BME280;71199;52.490;5.448;2024-03-08T02:41:07;101959.97;;;0.53;100.00
81802;BME280;71199;52.490;5.448;2024-03-08T02:43:34;101948.69;;;0.45;100.00
81802;BME280;71199;52.490;5.448;2024-03-08T02:45:59;101941.28;;;0.48;100.00
81802;BME280;71199;52.490;5.448;2024-03-08T02:48:25;101926.91;;;0.48;100.00
81802;BME280;71199;52.490;5.448;2024-03-08T02:50:51;101940.50;;;0.46;100.00
81802;BME280;71199;52.490;5.448;2024-03-08T02:53:16;101932.69;;;0.40;100.00
81802;BME280;71199;52.490;5.448;2024-03-08T02:55:44;101934.38;;;0.43;100.00
81802;BME280;71199;52.490;5.448;2024-03-08T02:58:09;101922.50;;;0.45;100.00
81802;BME280;71199;52.490;5.448;2024-03-08T03:00:36;101930.16;;;0.37;100.00
81802;BME280;71199;52.490;5.448;2024-03-08T03:03:02;101932.06;;;0.35;100.00
81802;BME280;71199;52.490;5.448;2024-03-08T03:05:29;101923.00;;;0.36;100.00
81802;BME280;71199;52.490;5.448;2024-03-08T03:07:55;101923.47;;;0.27;100.00
81802;BME280;71199;52.490;5.448;2024-03-08T03:10:21;101921.34;;;0.33;100.00
81802;BME280;71199;52.490;5.448;2024-03-08T03:12:47;101918.97;;;0.27;100.00
81802;BME280;71199;52.490;5.448;2024-03-08T03:15:14;101902.41;;;0.33;100.00
81802;BME280;71199;52.490;5.448;2024-03-08T03:17:48;101909.63;;;0.33;100.00
81802;BME280;71199;52.490;5.448;2024-03-08T03:20:16;101905.66;;;0.23;100.00
81802;BME280;71199;52.490;5.448;2024-03-08T03:22:48;101900.97;;;0.26;100.00
81802;BME280;71199;52.490;5.448;2024-03-08T03:25:19;101900.97;;;0.26;100.00
81802;BME280;71199;52.490;5.448;2024-03-08T03:27:54;101891.69;;;0.14;100.00
81802;BME280;71199;52.490;5.448;2024-03-08T03:30:23;101888.56;;;0.22;100.00
81802;BME280;71199;52.490;5.448;2024-03-08T03:32:51;101883.34;;;0.19;100.00
81802;BME280;71199;52.490;5.448;2024-03-08T03:35:18;101881.91;;;0.29;100.00
81802;BME280;71199;52.490;5.448;2024-03-08T03:37:44;101877.22;;;0.15;100.00
81802;BME280;71199;52.490;5.448;2024-03-08T03:40:30;101875.47;;;0.14;100.00
81802;BME280;71199;52.490;5.448;2024-03-08T03:42:56;101870.22;;;0.11;100.00
81802;BME280;71199;52.490;5.448;2024-03-08T03:45:22;101880.19;;;0.11;100.00
81802;BME280;71199;52.490;5.448;2024-03-08T03:47:48;101878.00;;;0.17;100.00
81802;BME280;71199;52.490;5.448;2024-03-08T03:50:13;101879.84;;;-0.01;100.00
81802;BME280;71199;52.490;5.448;2024-03-08T03:52:39;101880.63;;;0.02;100.00
81802;BME280;71199;52.490;5.448;2024-03-08T03:55:04;101873.75;;;-0.04;100.00
81802;BME280;71199;52.490;5.448;2024-03-08T03:57:30;101873.81;;;-0.06;100.00
81802;BME280;71199;52.490;5.448;2024-03-08T03:59:56;101867.56;;;-0.06;100.00
81802;BME280;71199;52.490;5.448;2024-03-08T04:02:24;101869.59;;;0.06;100.00
81802;BME280;71199;52.490;5.448;2024-03-08T04:04:49;101867.94;;;0.04;100.00
81802;BME280;71199;52.490;5.448;2024-03-08T04:07:15;101874.38;;;0.01;100.00
81802;BME280;71199;52.490;5.448;2024-03-08T04:09:40;101869.69;;;0.05;100.00
81802;BME280;71199;52.490;5.448;2024-03-08T04:12:06;101863.63;;;-0.01;100.00
81802;BME280;71199;52.490;5.448;2024-03-08T04:14:32;101868.56;;;-0.09;100.00
81802;BME280;71199;52.490;5.448;2024-03-08T04:16:58;101860.63;;;-0.12;100.00
81802;BME280;71199;52.490;5.448;2024-03-08T04:19:23;101860.47;;;-0.09;100.00
81802;BME280;71199;52.490;5.448;2024-03-08T04:21:49;101867.22;;;-0.17;100.00
81802;BME280;71199;52.490;5.448;2024-03-08T04:24:15;101861.75;;;-0.16;100.00
81802;BME280;71199;52.490;5.448;2024-03-08T04:26:42;101862.78;;;-0.18;100.00
81802;BME280;71199;52.490;5.448;2024-03-08T04:29:07;101857.44;;;-0.03;100.00
81802;BME280;71199;52.490;5.448;2024-03-08T04:31:33;101862.16;;;-0.06;100.00
81802;BME280;71199;52.490;5.448;2024-03-08T04:33:58;101853.00;;;-0.04;100.00
81802;BME280;71199;52.490;5.448;2024-03-08T04:36:24;101850.56;;;-0.08;100.00
81802;BME280;71199;52.490;5.448;2024-03-08T04:38:50;101848.31;;;-0.17;100.00
81802;BME280;71199;52.490;5.448;2024-03-08T04:41:16;101844.41;;;-0.12;100.00
81802;BME280;71199;52.490;5.448;2024-03-08T04:43:42;101844.66;;;-0.16;100.00
81802;BME280;71199;52.490;5.448;2024-03-08T04:46:08;101855.69;;;-0.21;100.00
81802;BME280;71199;52.490;5.448;2024-03-08T04:48:34;101840.09;;;0.02;100.00
81802;BME280;71199;52.490;5.448;2024-03-08T04:51:02;101845.34;;;-0.13;100.00
81802;BME280;71199;52.490;5.448;2024-03-08T04:53:29;101843.28;;;-0.25;100.00
81802;BME280;71199;52.490;5.448;2024-03-08T04:55:54;101842.75;;;-0.14;100.00
81802;BME280;71199;52.490;5.448;2024-03-08T04:58:22;101842.34;;;-0.24;100.00
81802;BME280;71199;52.490;5.448;2024-03-08T05:00:48;101843.78;;;-0.17;100.00
81802;BME280;71199;52.490;5.448;2024-03-08T05:03:14;101831.22;;;-0.18;100.00
81802;BME280;71199;52.490;5.448;2024-03-08T05:05:39;101829.31;;;-0.16;100.00
81802;BME280;71199;52.490;5.448;2024-03-08T05:08:05;101835.38;;;-0.28;100.00
81802;BME280;71199;52.490;5.448;2024-03-08T05:10:30;101833.94;;;-0.18;100.00
81802;BME280;71199;52.490;5.448;2024-03-08T05:12:56;101829.78;;;-0.25;100.00
81802;BME280;71199;52.490;5.448;2024-03-08T05:15:21;101830.44;;;-0.20;100.00
81802;BME280;71199;52.490;5.448;2024-03-08T05:17:47;101827.56;;;-0.17;100.00
81802;BME280;71199;52.490;5.448;2024-03-08T05:20:12;101828.19;;;-0.29;100.00
81802;BME280;71199;52.490;5.448;2024-03-08T05:22:38;101835.28;;;-0.27;100.00
81802;BME280;71199;52.490;5.448;2024-03-08T05:25:06;101832.16;;;-0.19;100.00
81802;BME280;71199;52.490;5.448;2024-03-08T05:27:33;101839.09;;;-0.31;100.00
81802;BME280;71199;52.490;5.448;2024-03-08T05:29:58;101832.00;;;-0.33;100.00
81802;BME280;71199;52.490;5.448;2024-03-08T05:32:24;101831.00;;;-0.31;100.00
81802;BME280;71199;52.490;5.448;2024-03-08T05:34:50;101831.22;;;-0.35;100.00
81802;BME280;71199;52.490;5.448;2024-03-08T05:37:15;101833.47;;;-0.26;100.00
81802;BME280;71199;52.490;5.448;2024-03-08T05:39:41;101835.13;;;-0.41;100.00
81802;BME280;71199;52.490;5.448;2024-03-08T05:42:06;101829.78;;;-0.25;100.00
81802;BME280;71199;52.490;5.448;2024-03-08T05:44:34;101832.13;;;-0.35;100.00
81802;BME280;71199;52.490;5.448;2024-03-08T05:46:59;101831.84;;;-0.48;100.00
81802;BME280;71199;52.490;5.448;2024-03-08T05:49:25;101826.63;;;-0.51;100.00
81802;BME280;71199;52.490;5.448;2024-03-08T05:51:51;101831.03;;;-0.50;100.00
81802;BME280;71199;52.490;5.448;2024-03-08T05:54:16;101830.72;;;-0.44;100.00
81802;BME280;71199;52.490;5.448;2024-03-08T05:56:42;101826.94;;;-0.39;100.00
81802;BME280;71199;52.490;5.448;2024-03-08T05:59:08;101823.44;;;-0.42;100.00
81802;BME280;71199;52.490;5.448;2024-03-08T06:01:34;101823.13;;;-0.35;100.00
81802;BME280;71199;52.490;5.448;2024-03-08T06:04:02;101816.13;;;-0.39;100.00
81802;BME280;71199;52.490;5.448;2024-03-08T06:06:28;101828.59;;;-0.19;100.00
81802;BME280;71199;52.490;5.448;2024-03-08T06:08:54;101813.50;;;-0.24;100.00
81802;BME280;71199;52.490;5.448;2024-03-08T06:11:23;101814.84;;;-0.15;100.00
81802;BME280;71199;52.490;5.448;2024-03-08T06:13:52;101817.25;;;-0.26;100.00
81802;BME280;71199;52.490;5.448;2024-03-08T06:16:20;101813.50;;;-0.24;100.00
81802;BME280;71199;52.490;5.448;2024-03-08T06:18:46;101807.06;;;-0.21;100.00
81802;BME280;71199;52.490;5.448;2024-03-08T06:21:12;101804.03;;;-0.15;100.00
81802;BME280;71199;52.490;5.448;2024-03-08T06:23:37;101801.81;;;-0.07;100.00
81802;BME280;71199;52.490;5.448;2024-03-08T06:26:12;101798.63;;;-0.15;100.00
81802;BME280;71199;52.490;5.448;2024-03-08T06:28:38;101801.97;;;-0.10;100.00
81802;BME280;71199;52.490;5.448;2024-03-08T06:31:03;101790.22;;;-0.09;100.00
81802;BME280;71199;52.490;5.448;2024-03-08T06:33:29;101790.31;;;-0.10;100.00
81802;BME280;71199;52.490;5.448;2024-03-08T06:35:56;101796.97;;;0.00;100.00
81802;BME280;71199;52.490;5.448;2024-03-08T06:38:25;101796.72;;;0.05;100.00
81802;BME280;71199;52.490;5.448;2024-03-08T06:40:51;101790.66;;;-0.01;100.00
81802;BME280;71199;52.490;5.448;2024-03-08T06:43:17;101784.91;;;-0.10;100.00
81802;BME280;71199;52.490;5.448;2024-03-08T06:45:44;101786.84;;;0.04;100.00
81802;BME280;71199;52.490;5.448;2024-03-08T06:48:18;101786.59;;;0.08;100.00
81802;BME280;71199;52.490;5.448;2024-03-08T06:50:45;101782.41;;;0.03;100.00
81802;BME280;71199;52.490;5.448;2024-03-08T06:53:11;101779.38;;;0.09;100.00
81802;BME280;71199;52.490;5.448;2024-03-08T06:55:37;101786.69;;;0.07;100.00
81802;BME280;71199;52.490;5.448;2024-03-08T06:58:03;101790.53;;;0.18;100.00
81802;BME280;71199;52.490;5.448;2024-03-08T07:00:28;101778.19;;;0.30;100.00
81802;BME280;71199;52.490;5.448;2024-03-08T07:02:56;101788.06;;;0.31;100.00
81802;BME280;71199;52.490;5.448;2024-03-08T07:05:22;101785.19;;;0.34;100.00
81802;BME280;71199;52.490;5.448;2024-03-08T07:07:49;101782.78;;;0.46;100.00
81802;BME280;71199;52.490;5.448;2024-03-08T07:10:16;101781.97;;;0.59;100.00
81802;BME280;71199;52.490;5.448;2024-03-08T07:12:42;101783.06;;;0.73;100.00
81802;BME280;71199;52.490;5.448;2024-03-08T07:15:08;101775.97;;;0.86;100.00
81802;BME280;71199;52.490;5.448;2024-03-08T07:17:36;101776.16;;;0.99;100.00
81802;BME280;71199;52.490;5.448;2024-03-08T07:20:01;101778.22;;;1.10;100.00
81802;BME280;71199;52.490;5.448;2024-03-08T07:22:36;101778.03;;;1.13;100.00
81802;BME280;71199;52.490;5.448;2024-03-08T07:25:02;101767.19;;;1.29;100.00
81802;BME280;71199;52.490;5.448;2024-03-08T07:27:53;101773.81;;;1.39;100.00
81802;BME280;71199;52.490;5.448;2024-03-08T07:30:20;101771.78;;;1.43;100.00
81802;BME280;71199;52.490;5.448;2024-03-08T07:33:05;101760.47;;;1.50;100.00
81802;BME280;71199;52.490;5.448;2024-03-08T07:35:32;101764.38;;;1.60;100.00
81802;BME280;71199;52.490;5.448;2024-03-08T07:37:58;101760.75;;;1.76;100.00
81802;BME280;71199;52.490;5.448;2024-03-08T07:40:25;101752.63;;;1.76;100.00
81802;BME280;71199;52.490;5.448;2024-03-08T07:42:51;101761.63;;;1.91;100.00
81802;BME280;71199;52.490;5.448;2024-03-08T07:45:16;101754.47;;;1.90;100.00
81802;BME280;71199;52.490;5.448;2024-03-08T07:47:42;101749.94;;;2.05;100.00
81802;BME280;71199;52.490;5.448;2024-03-08T07:50:08;101750.41;;;2.11;100.00
81802;BME280;71199;52.490;5.448;2024-03-08T07:52:34;101748.28;;;2.16;100.00
81802;BME280;71199;52.490;5.448;2024-03-08T07:55:00;101745.84;;;2.26;100.00
81802;BME280;71199;52.490;5.448;2024-03-08T07:57:26;101743.03;;;2.42;100.00
81802;BME280;71199;52.490;5.448;2024-03-08T07:59:51;101739.47;;;2.41;100.00
81802;BME280;71199;52.490;5.448;2024-03-08T08:02:17;101733.25;;;2.39;100.00
81802;BME280;71199;52.490;5.448;2024-03-08T08:04:42;101743.72;;;2.46;100.00
81802;BME280;71199;52.490;5.448;2024-03-08T08:07:10;101735.56;;;2.46;100.00
81802;BME280;71199;52.490;5.448;2024-03-08T08:09:35;101745.63;;;2.58;100.00
81802;BME280;71199;52.490;5.448;2024-03-08T08:12:00;101731.28;;;2.56;100.00
81802;BME280;71199;52.490;5.448;2024-03-08T08:14:28;101716.94;;;2.68;100.00
81802;BME280;71199;52.490;5.448;2024-03-08T08:16:54;101716.03;;;2.68;100.00
81802;BME280;71199;52.490;5.448;2024-03-08T08:19:21;101706.03;;;2.82;100.00
81802;BME280;71199;52.490;5.448;2024-03-08T08:21:46;101710.19;;;2.74;100.00
81802;BME280;71199;52.490;5.448;2024-03-08T08:24:12;101707.44;;;2.88;100.00
81802;BME280;71199;52.490;5.448;2024-03-08T08:26:37;101707.72;;;3.11;100.00
81802;BME280;71199;52.490;5.448;2024-03-08T08:29:03;101698.19;;;3.05;100.00
81802;BME280;71199;52.490;5.448;2024-03-08T08:31:28;101699.81;;;2.80;100.00
81802;BME280;71199;52.490;5.448;2024-03-08T08:33:54;101702.63;;;3.06;100.00
81802;BME280;71199;52.490;5.448;2024-03-08T08:36:26;101689.06;;;3.19;100.00
81802;BME280;71199;52.490;5.448;2024-03-08T08:38:54;101696.69;;;3.27;100.00
81802;BME280;71199;52.490;5.448;2024-03-08T08:41:21;101694.91;;;3.40;100.00
81802;BME280;71199;52.490;5.448;2024-03-08T08:43:47;101684.75;;;3.29;100.00
81802;BME280;71199;52.490;5.448;2024-03-08T08:46:17;101688.63;;;3.12;100.00
81802;BME280;71199;52.490;5.448;2024-03-08T08:48:42;101683.69;;;3.32;100.00
81802;BME280;71199;52.490;5.448;2024-03-08T08:51:11;101683.50;;;3.60;100.00
81802;BME280;71199;52.490;5.448;2024-03-08T08:53:40;101691.66;;;3.60;100.00
81802;BME280;71199;52.490;5.448;2024-03-08T08:56:11;101683.47;;;3.35;100.00
81802;BME280;71199;52.490;5.448;2024-03-08T08:58:44;101673.69;;;3.45;100.00
81802;BME280;71199;52.490;5.448;2024-03-08T09:01:10;101669.53;;;3.27;100.00
81802;BME280;71199;52.490;5.448;2024-03-08T09:03:38;101677.28;;;3.46;100.00
81802;BME280;71199;52.490;5.448;2024-03-08T09:06:06;101671.41;;;3.52;100.00
81802;BME280;71199;52.490;5.448;2024-03-08T09:08:37;101669.13;;;3.46;100.00
81802;BME280;71199;52.490;5.448;2024-03-08T09:11:03;101653.72;;;3.46;100.00
81802;BME280;71199;52.490;5.448;2024-03-08T09:13:29;101661.88;;;3.59;100.00
81802;BME280;71199;52.490;5.448;2024-03-08T09:15:54;101646.41;;;3.59;100.00
81802;BME280;71199;52.490;5.448;2024-03-08T09:18:20;101651.09;;;3.83;100.00
81802;BME280;71199;52.490;5.448;2024-03-08T09:20:45;101652.19;;;3.93;100.00
81802;BME280;71199;52.490;5.448;2024-03-08T09:23:12;101637.59;;;3.94;100.00
81802;BME280;71199;52.490;5.448;2024-03-08T09:25:37;101633.97;;;4.07;100.00
81802;BME280;71199;52.490;5.448;2024-03-08T09:28:03;101636.25;;;4.13;100.00
81802;BME280;71199;52.490;5.448;2024-03-08T09:30:31;101643.41;;;4.27;99.15
81802;BME280;71199;52.490;5.448;2024-03-08T09:32:56;101633.84;;;4.21;98.69
81802;BME280;71199;52.490;5.448;2024-03-08T09:35:22;101633.22;;;4.04;98.98
81802;BME280;71199;52.490;5.448;2024-03-08T09:37:47;101625.31;;;4.26;100.00
81802;BME280;71199;52.490;5.448;2024-03-08T09:40:16;101621.47;;;4.41;100.00
81802;BME280;71199;52.490;5.448;2024-03-08T09:42:42;101611.09;;;4.46;99.69
81802;BME280;71199;52.490;5.448;2024-03-08T09:45:11;101615.06;;;4.66;99.87
81802;BME280;71199;52.490;5.448;2024-03-08T09:47:41;101609.81;;;4.63;98.05
81802;BME280;71199;52.490;5.448;2024-03-08T09:50:08;101608.97;;;4.62;97.83
81802;BME280;71199;52.490;5.448;2024-03-08T09:52:36;101602.19;;;4.44;98.03
81802;BME280;71199;52.490;5.448;2024-03-08T09:55:04;101597.38;;;4.48;98.39
81802;BME280;71199;52.490;5.448;2024-03-08T09:57:30;101600.22;;;4.46;98.75
81802;BME280;71199;52.490;5.448;2024-03-08T09:59:56;101585.56;;;4.60;98.83
81802;BME280;71199;52.490;5.448;2024-03-08T10:02:22;101576.84;;;4.43;99.17
81802;BME280;71199;52.490;5.448;2024-03-08T10:04:48;101579.78;;;4.40;99.70
81802;BME280;71199;52.490;5.448;2024-03-08T10:07:13;101579.47;;;4.32;98.85
81802;BME280;71199;52.490;5.448;2024-03-08T10:09:39;101578.25;;;4.36;98.27
81802;BME280;71199;52.490;5.448;2024-03-08T10:12:05;101577.81;;;4.42;99.09
81802;BME280;71199;52.490;5.448;2024-03-08T10:14:31;101566.16;;;4.40;99.63
81802;BME280;71199;52.490;5.448;2024-03-08T10:16:59;101561.44;;;4.55;99.10
81802;BME280;71199;52.490;5.448;2024-03-08T10:19:28;101560.72;;;4.64;100.00
81802;BME280;71199;52.490;5.448;2024-03-08T10:21:55;101561.53;;;4.78;99.37
81802;BME280;71199;52.490;5.448;2024-03-08T10:24:23;101560.03;;;4.74;96.98
81802;BME280;71199;52.490;5.448;2024-03-08T10:26:53;101553.56;;;4.63;98.06
81802;BME280;71199;52.490;5.448;2024-03-08T10:29:19;101552.25;;;4.80;97.27
81802;BME280;71199;52.490;5.448;2024-03-08T10:31:45;101551.78;;;4.87;98.82
81802;BME280;71199;52.490;5.448;2024-03-08T10:34:10;101548.19;;;4.86;99.10
81802;BME280;71199;52.490;5.448;2024-03-08T10:36:36;101537.25;;;4.75;99.95
81802;BME280;71199;52.490;5.448;2024-03-08T10:39:10;101537.81;;;5.02;99.61
81802;BME280;71199;52.490;5.448;2024-03-08T10:41:42;101534.47;;;5.10;98.14
81802;BME280;71199;52.490;5.448;2024-03-08T10:47:03;101523.84;;;5.07;98.73
81802;BME280;71199;52.490;5.448;2024-03-08T10:49:38;101520.25;;;5.18;98.13
81802;BME280;71199;52.490;5.448;2024-03-08T10:52:09;101515.66;;;5.18;99.99
81802;BME280;71199;52.490;5.448;2024-03-08T10:54:37;101515.66;;;5.18;99.45
81802;BME280;71199;52.490;5.448;2024-03-08T10:57:07;101511.09;;;5.19;97.69
81802;BME280;71199;52.490;5.448;2024-03-08T10:59:34;101513.44;;;5.12;98.37
81802;BME280;71199;52.490;5.448;2024-03-08T11:02:00;101499.94;;;5.22;98.45
81802;BME280;71199;52.490;5.448;2024-03-08T11:04:26;101501.31;;;5.28;98.48
81802;BME280;71199;52.490;5.448;2024-03-08T11:07:00;101494.00;;;5.28;98.82
81802;BME280;71199;52.490;5.448;2024-03-08T11:09:31;101486.56;;;5.30;97.20
81802;BME280;71199;52.490;5.448;2024-03-08T11:12:29;101470.72;;;5.47;97.69
81802;BME280;71199;52.490;5.448;2024-03-08T11:15:02;101474.69;;;5.42;98.10
81802;BME280;71199;52.490;5.448;2024-03-08T11:20:02;101463.16;;;5.50;97.85
81802;BME280;71199;52.490;5.448;2024-03-08T11:22:32;101467.88;;;5.48;96.72
81802;BME280;71199;52.490;5.448;2024-03-08T11:25:01;101444.19;;;5.49;97.71
81802;BME280;71199;52.490;5.448;2024-03-08T11:27:30;101452.84;;;5.54;97.94
81802;BME280;71199;52.490;5.448;2024-03-08T11:30:00;101442.34;;;5.60;98.53
81802;BME280;71199;52.490;5.448;2024-03-08T11:32:35;101435.59;;;5.76;98.97
81802;BME280;71199;52.490;5.448;2024-03-08T11:35:00;101437.81;;;5.82;96.48
81802;BME280;71199;52.490;5.448;2024-03-08T11:37:33;101433.38;;;5.81;95.83
81802;BME280;71199;52.490;5.448;2024-03-08T11:40:00;101420.81;;;5.78;95.55
81802;BME280;71199;52.490;5.448;2024-03-08T11:42:26;101414.84;;;5.84;96.09
81802;BME280;71199;52.490;5.448;2024-03-08T11:44:53;101428.13;;;6.00;97.18
81802;BME280;71199;52.490;5.448;2024-03-08T11:47:19;101413.59;;;6.00;95.51
81802;BME280;71199;52.490;5.448;2024-03-08T11:49:45;101404.78;;;6.08;95.21
81802;BME280;71199;52.490;5.448;2024-03-08T11:52:17;101414.16;;;6.15;95.15
81802;BME280;71199;52.490;5.448;2024-03-08T11:54:51;101400.13;;;6.19;94.19
81802;BME280;71199;52.490;5.448;2024-03-08T11:57:22;101389.69;;;6.24;93.09
81802;BME280;71199;52.490;5.448;2024-03-08T11:59:55;101384.09;;;6.26;93.36
81802;BME280;71199;52.490;5.448;2024-03-08T12:02:24;101399.44;;;6.38;93.56
81802;BME280;71199;52.490;5.448;2024-03-08T12:05:00;101379.63;;;6.46;93.17
81802;BME280;71199;52.490;5.448;2024-03-08T12:07:26;101378.97;;;6.54;92.86
81802;BME280;71199;52.490;5.448;2024-03-08T12:10:21;101371.94;;;6.61;93.97
81802;BME280;71199;52.490;5.448;2024-03-08T12:12:48;101369.41;;;6.69;93.95
81802;BME280;71199;52.490;5.448;2024-03-08T12:15:17;101366.00;;;6.77;90.55
81802;BME280;71199;52.490;5.448;2024-03-08T12:17:44;101359.94;;;6.73;90.38
81802;BME280;71199;52.490;5.448;2024-03-08T12:20:20;101344.44;;;6.74;91.10
81802;BME280;71199;52.490;5.448;2024-03-08T12:22:54;101342.75;;;6.82;90.33
81802;BME280;71199;52.490;5.448;2024-03-08T12:25:26;101343.66;;;6.93;91.92
81802;BME280;71199;52.490;5.448;2024-03-08T12:27:52;101340.38;;;6.99;89.37
81802;BME280;71199;52.490;5.448;2024-03-08T12:30:23;101324.53;;;6.93;88.81
81802;BME280;71199;52.490;5.448;2024-03-08T12:32:59;101316.59;;;6.90;89.47
81802;BME280;71199;52.490;5.448;2024-03-08T12:35:29;101327.44;;;7.01;89.28
81802;BME280;71199;52.490;5.448;2024-03-08T12:37:56;101310.06;;;7.12;89.56
81802;BME280;71199;52.490;5.448;2024-03-08T12:40:30;101311.03;;;7.01;88.79
81802;BME280;71199;52.490;5.448;2024-03-08T12:42:57;101298.97;;;7.03;89.95
81802;BME280;71199;52.490;5.448;2024-03-08T12:45:23;101310.66;;;7.15;88.25
81802;BME280;71199;52.490;5.448;2024-03-08T12:47:53;101294.09;;;7.07;87.20
81802;BME280;71199;52.490;5.448;2024-03-08T12:50:19;101282.59;;;7.13;87.35
81802;BME280;71199;52.490;5.448;2024-03-08T12:52:45;101305.63;;;7.20;87.11
81802;BME280;71199;52.490;5.448;2024-03-08T12:55:10;101276.00;;;7.25;88.63